createdAt,value
2019-05-06T00:00:58.778Z,21.79
2019-05-06T00:01:53.969Z,21.82
2019-05-06T00:02:54.558Z,21.81
2019-05-06T00:03:54.159Z,21.76
2019-05-06T00:04:54.193Z,21.83
2019-05-06T00:05:54.250Z,21.79
2019-05-06T00:06:54.592Z,21.81
2019-05-06T00:07:54.532Z,21.76
2019-05-06T00:08:54.395Z,21.76
2019-05-06T00:09:53.848Z,21.81
2019-05-06T00:10:54.187Z,21.79
2019-05-06T00:11:54.396Z,21.81
2019-05-06T00:12:53.581Z,21.76
2019-05-06T00:13:54.335Z,21.81
2019-05-06T00:14:54.206Z,21.83
2019-05-06T00:15:54.210Z,21.81
2019-05-06T00:16:54.559Z,21.79
2019-05-06T00:17:53.959Z,21.85
2019-05-06T00:18:54.092Z,21.85
2019-05-06T00:19:53.997Z,21.88
2019-05-06T00:20:54.832Z,21.82
2019-05-06T00:21:54.078Z,21.76
2019-05-06T00:22:54.113Z,21.82
2019-05-06T00:23:54.361Z,21.83
2019-05-06T00:24:54.578Z,21.79
2019-05-06T00:25:53.516Z,21.82
2019-05-06T00:26:55.194Z,21.82
2019-05-06T00:27:54.411Z,21.82
2019-05-06T00:28:53.894Z,21.78
2019-05-06T00:29:54.805Z,21.78
2019-05-06T00:30:54.468Z,21.81
2019-05-06T00:31:53.641Z,21.83
2019-05-06T00:32:53.843Z,21.74
2019-05-06T00:33:54.015Z,21.79
2019-05-06T00:34:54.478Z,21.76
2019-05-06T00:35:53.855Z,21.78
2019-05-06T00:36:54.319Z,21.76
2019-05-06T00:37:53.650Z,21.81
2019-05-06T00:38:53.816Z,21.81
2019-05-06T00:39:53.888Z,21.81
2019-05-06T00:40:54.251Z,21.79
2019-05-06T00:41:53.809Z,21.83
2019-05-06T00:42:54.094Z,21.79
2019-05-06T00:43:51.984Z,21.79
2019-05-06T00:44:53.707Z,21.81
2019-05-06T00:45:53.667Z,21.78
2019-05-06T00:46:51.952Z,21.78
2019-05-06T00:47:53.595Z,21.81
2019-05-06T00:48:54.084Z,21.85
2019-05-06T00:49:51.919Z,21.81
2019-05-06T00:50:53.562Z,21.76
2019-05-06T00:51:51.905Z,21.85
2019-05-06T00:52:53.831Z,21.82
2019-05-06T00:53:51.874Z,21.83
2019-05-06T00:54:51.862Z,21.79
2019-05-06T00:55:53.654Z,21.81
2019-05-06T00:56:53.984Z,21.85
2019-05-06T00:57:51.852Z,21.81
2019-05-06T00:58:51.820Z,21.81
2019-05-06T00:59:53.734Z,21.82
2019-05-06T01:00:53.876Z,21.79
2019-05-06T01:01:53.754Z,21.81
2019-05-06T01:02:54.073Z,21.74
2019-05-06T01:03:53.695Z,21.81
2019-05-06T01:04:54.013Z,21.76
2019-05-06T01:05:53.990Z,21.81
2019-05-06T01:06:51.729Z,21.74
2019-05-06T01:07:51.718Z,21.78
2019-05-06T01:08:51.732Z,21.69
2019-05-06T01:09:51.700Z,21.74
2019-05-06T01:10:51.688Z,21.78
2019-05-06T01:11:51.674Z,21.74
2019-05-06T01:12:51.676Z,21.74
2019-05-06T01:13:51.677Z,21.72
2019-05-06T01:14:51.663Z,21.75
2019-05-06T01:15:51.633Z,21.82
2019-05-06T01:16:51.618Z,21.76
2019-05-06T01:17:53.741Z,21.79
2019-05-06T01:18:54.018Z,21.81
2019-05-06T01:19:53.954Z,21.78
2019-05-06T01:20:51.579Z,21.83
2019-05-06T01:21:51.567Z,21.76
2019-05-06T01:22:51.554Z,21.78
2019-05-06T01:23:51.565Z,21.75
2019-05-06T01:24:51.531Z,21.79
2019-05-06T01:25:51.523Z,21.83
2019-05-06T01:26:53.504Z,21.76
2019-05-06T01:27:53.908Z,21.78
2019-05-06T01:28:51.510Z,21.81
2019-05-06T01:29:51.473Z,21.78
2019-05-06T01:30:53.467Z,21.74
2019-05-06T01:31:51.454Z,21.79
2019-05-06T01:32:51.440Z,21.81
2019-05-06T01:33:53.421Z,21.75
2019-05-06T01:34:53.233Z,21.74
2019-05-06T01:35:51.411Z,21.83
2019-05-06T01:36:51.401Z,21.79
2019-05-06T01:37:51.388Z,21.83
2019-05-06T01:38:53.435Z,21.76
2019-05-06T01:39:51.362Z,21.78
2019-05-06T01:40:51.351Z,21.83
2019-05-06T01:41:53.531Z,21.79
2019-05-06T01:42:51.328Z,21.76
2019-05-06T01:43:51.343Z,21.78
2019-05-06T01:44:51.331Z,21.76
2019-05-06T01:45:53.512Z,21.74
2019-05-06T01:46:51.287Z,21.74
2019-05-06T01:47:51.274Z,21.69
2019-05-06T01:48:53.461Z,21.72
2019-05-06T01:49:51.271Z,21.76
2019-05-06T01:50:51.239Z,21.69
2019-05-06T01:51:51.232Z,21.79
2019-05-06T01:52:51.217Z,21.79
2019-05-06T01:53:51.212Z,21.79
2019-05-06T01:54:51.217Z,21.79
2019-05-06T01:55:51.185Z,21.76
2019-05-06T01:56:51.176Z,21.79
2019-05-06T01:57:51.164Z,21.75
2019-05-06T01:58:51.153Z,21.79
2019-05-06T01:59:51.161Z,21.78
2019-05-06T02:00:51.129Z,21.75
2019-05-06T02:01:59.890Z,21.69
2019-05-06T02:02:52.104Z,21.78
2019-05-06T02:03:51.098Z,21.75
2019-05-06T02:04:51.105Z,21.71
2019-05-06T02:05:51.080Z,21.76
2019-05-06T02:06:51.065Z,21.75
2019-05-06T02:07:51.054Z,21.76
2019-05-06T02:08:51.042Z,21.74
2019-05-06T02:09:51.052Z,21.75
2019-05-06T02:10:51.020Z,21.74
2019-05-06T02:11:51.006Z,21.78
2019-05-06T02:12:50.996Z,21.75
2019-05-06T02:13:50.984Z,21.74
2019-05-06T02:14:50.994Z,21.67
2019-05-06T02:15:50.965Z,21.78
2019-05-06T02:16:50.954Z,21.79
2019-05-06T02:17:50.943Z,21.74
2019-05-06T02:18:50.952Z,21.66
2019-05-06T02:19:50.939Z,21.71
2019-05-06T02:20:50.909Z,21.69
2019-05-06T02:21:50.896Z,21.67
2019-05-06T02:22:50.893Z,21.66
2019-05-06T02:23:50.873Z,21.67
2019-05-06T02:24:50.889Z,21.63
2019-05-06T02:25:50.852Z,21.61
2019-05-06T02:26:50.844Z,21.66
2019-05-06T02:27:50.828Z,21.64
2019-05-06T02:28:50.826Z,21.63
2019-05-06T02:29:50.829Z,21.64
2019-05-06T02:30:50.799Z,21.63
2019-05-06T02:31:50.785Z,21.66
2019-05-06T02:32:50.778Z,21.63
2019-05-06T02:33:50.763Z,21.64
2019-05-06T02:34:50.804Z,21.67
2019-05-06T02:35:50.741Z,21.66
2019-05-06T02:36:50.735Z,21.74
2019-05-06T02:37:50.718Z,21.72
2019-05-06T02:38:52.378Z,21.66
2019-05-06T02:39:53.404Z,21.75
2019-05-06T02:40:53.406Z,21.71
2019-05-06T02:41:50.673Z,21.63
2019-05-06T02:42:54.093Z,21.67
2019-05-06T02:43:50.652Z,21.74
2019-05-06T02:44:50.642Z,21.69
2019-05-06T02:45:53.082Z,21.78
2019-05-06T02:46:53.168Z,21.72
2019-05-06T02:47:53.547Z,21.67
2019-05-06T02:48:50.599Z,21.67
2019-05-06T02:49:53.394Z,21.74
2019-05-06T02:50:53.485Z,21.69
2019-05-06T02:51:53.263Z,21.64
2019-05-06T02:52:53.481Z,21.78
2019-05-06T02:53:53.553Z,21.69
2019-05-06T02:54:53.387Z,21.75
2019-05-06T02:55:52.918Z,21.64
2019-05-06T02:56:52.893Z,21.67
2019-05-06T02:57:53.335Z,21.72
2019-05-06T02:58:53.321Z,21.72
2019-05-06T02:59:50.479Z,21.64
2019-05-06T03:00:53.689Z,21.71
2019-05-06T03:01:53.535Z,21.72
2019-05-06T03:02:50.442Z,21.66
2019-05-06T03:03:53.280Z,21.67
2019-05-06T03:04:52.828Z,21.63
2019-05-06T03:05:53.178Z,21.69
2019-05-06T03:06:52.980Z,21.66
2019-05-06T03:07:50.390Z,21.69
2019-05-06T03:08:50.381Z,21.64
2019-05-06T03:09:53.233Z,21.67
2019-05-06T03:10:53.102Z,21.66
2019-05-06T03:11:53.636Z,21.69
2019-05-06T03:12:53.466Z,21.69
2019-05-06T03:13:50.321Z,21.60
2019-05-06T03:14:53.205Z,21.66
2019-05-06T03:15:50.297Z,21.63
2019-05-06T03:16:53.811Z,21.66
2019-05-06T03:17:50.275Z,21.67
2019-05-06T03:18:53.180Z,21.66
2019-05-06T03:19:52.616Z,21.69
2019-05-06T03:20:53.158Z,21.66
2019-05-06T03:21:50.265Z,21.63
2019-05-06T03:22:50.220Z,21.69
2019-05-06T03:23:50.213Z,21.66
2019-05-06T03:24:50.199Z,21.66
2019-05-06T03:25:53.023Z,21.66
2019-05-06T03:26:53.431Z,21.66
2019-05-06T03:27:53.204Z,21.61
2019-05-06T03:28:53.317Z,21.66
2019-05-06T03:29:53.452Z,21.69
2019-05-06T03:30:50.134Z,21.61
2019-05-06T03:31:55.665Z,21.64
2019-05-06T03:33:23.375Z,21.66
2019-05-06T03:34:16.533Z,21.67
2019-05-06T03:35:09.064Z,21.66
2019-05-06T03:36:06.347Z,21.63
2019-05-06T03:36:55.442Z,21.66
2019-05-06T03:37:53.328Z,21.63
2019-05-06T03:38:50.040Z,21.63
2019-05-06T03:39:52.768Z,21.66
2019-05-06T03:40:50.026Z,21.63
2019-05-06T03:41:50.032Z,21.69
2019-05-06T03:42:49.996Z,21.67
2019-05-06T03:43:49.985Z,21.67
2019-05-06T03:44:52.928Z,21.64
2019-05-06T03:45:49.967Z,21.63
2019-05-06T03:46:49.975Z,21.64
2019-05-06T03:47:49.940Z,21.61
2019-05-06T03:48:52.908Z,21.63
2019-05-06T03:49:53.651Z,21.71
2019-05-06T03:50:55.655Z,21.61
2019-05-06T03:51:55.991Z,21.66
2019-05-06T03:52:56.040Z,21.64
2019-05-06T03:53:53.949Z,21.67
2019-05-06T03:54:53.086Z,21.67
2019-05-06T03:55:49.852Z,21.69
2019-05-06T03:56:49.863Z,21.67
2019-05-06T03:57:49.830Z,21.67
2019-05-06T03:58:49.823Z,21.71
2019-05-06T03:59:52.612Z,21.66
2019-05-06T04:00:49.807Z,21.66
2019-05-06T04:01:49.810Z,21.66
2019-05-06T04:02:49.776Z,21.61
2019-05-06T04:03:53.816Z,21.63
2019-05-06T04:04:55.925Z,21.67
2019-05-06T04:05:52.482Z,21.66
2019-05-06T04:06:49.757Z,21.66
2019-05-06T04:07:52.764Z,21.67
2019-05-06T04:08:52.597Z,21.61
2019-05-06T04:09:49.698Z,21.66
2019-05-06T04:10:49.686Z,21.61
2019-05-06T04:11:49.677Z,21.63
2019-05-06T04:12:49.685Z,21.66
2019-05-06T04:13:49.657Z,21.66
2019-05-06T04:14:49.642Z,21.64
2019-05-06T04:15:49.631Z,21.59
2019-05-06T04:16:49.621Z,21.63
2019-05-06T04:17:49.672Z,21.61
2019-05-06T04:18:49.602Z,21.61
2019-05-06T04:19:49.587Z,21.64
2019-05-06T04:20:52.933Z,21.63
2019-05-06T04:21:49.564Z,21.61
2019-05-06T04:22:49.575Z,21.64
2019-05-06T04:23:49.541Z,21.56
2019-05-06T04:24:49.531Z,21.66
2019-05-06T04:25:52.544Z,21.60
2019-05-06T04:26:49.508Z,21.63
2019-05-06T04:27:49.523Z,21.61
2019-05-06T04:28:49.490Z,21.64
2019-05-06T04:29:49.476Z,21.64
2019-05-06T04:30:49.474Z,21.61
2019-05-06T04:31:49.452Z,21.61
2019-05-06T04:32:49.471Z,21.53
2019-05-06T04:34:07.305Z,21.61
2019-05-06T04:34:53.187Z,21.60
2019-05-06T04:35:49.409Z,21.54
2019-05-06T04:36:49.410Z,21.64
2019-05-06T04:37:49.410Z,21.60
2019-05-06T04:38:49.404Z,21.57
2019-05-06T04:39:49.367Z,21.53
2019-05-06T04:40:49.353Z,21.59
2019-05-06T04:41:49.342Z,21.60
2019-05-06T04:42:49.335Z,21.59
2019-05-06T04:43:49.342Z,21.59
2019-05-06T04:44:49.321Z,21.53
2019-05-06T04:45:49.301Z,21.50
2019-05-06T04:46:49.285Z,21.60
2019-05-06T04:47:49.275Z,21.57
2019-05-06T04:48:49.285Z,21.57
2019-05-06T04:49:49.256Z,21.56
2019-05-06T04:50:49.241Z,21.61
2019-05-06T04:51:49.232Z,21.54
2019-05-06T04:52:49.220Z,21.54
2019-05-06T04:53:49.231Z,21.53
2019-05-06T04:54:49.201Z,21.53
2019-05-06T04:55:49.189Z,21.57
2019-05-06T04:56:49.175Z,21.54
2019-05-06T04:57:49.164Z,21.56
2019-05-06T04:58:49.175Z,21.54
2019-05-06T04:59:49.145Z,21.54
2019-05-06T05:00:49.131Z,21.63
2019-05-06T05:01:49.119Z,21.53
2019-05-06T05:02:49.109Z,21.60
2019-05-06T05:03:49.124Z,21.59
2019-05-06T05:04:49.087Z,21.56
2019-05-06T05:05:49.074Z,21.54
2019-05-06T05:06:49.064Z,21.59
2019-05-06T05:07:49.055Z,21.57
2019-05-06T05:08:49.064Z,21.51
2019-05-06T05:09:49.040Z,21.59
2019-05-06T05:10:49.022Z,21.51
2019-05-06T05:11:49.010Z,21.54
2019-05-06T05:12:48.999Z,21.56
2019-05-06T05:13:49.011Z,21.59
2019-05-06T05:14:48.980Z,21.56
2019-05-06T05:15:48.969Z,21.59
2019-05-06T05:16:48.958Z,21.57
2019-05-06T05:17:48.943Z,21.61
2019-05-06T05:18:48.954Z,21.56
2019-05-06T05:19:48.920Z,21.67
2019-05-06T05:20:48.910Z,21.60
2019-05-06T05:21:48.898Z,21.66
2019-05-06T05:22:48.887Z,21.60
2019-05-06T05:23:48.896Z,21.59
2019-05-06T05:24:48.865Z,21.64
2019-05-06T05:25:48.854Z,21.60
2019-05-06T05:26:48.902Z,21.61
2019-05-06T05:27:48.839Z,21.67
2019-05-06T05:28:48.843Z,21.66
2019-05-06T05:29:48.813Z,21.63
2019-05-06T05:30:48.798Z,21.67
2019-05-06T05:31:48.789Z,21.63
2019-05-06T05:32:48.776Z,21.61
2019-05-06T05:33:48.785Z,21.67
2019-05-06T05:34:48.757Z,21.66
2019-05-06T05:35:48.743Z,21.66
2019-05-06T05:36:48.732Z,21.63
2019-05-06T05:37:48.721Z,21.66
2019-05-06T05:38:48.734Z,21.61
2019-05-06T05:39:48.698Z,21.72
2019-05-06T05:40:48.691Z,21.63
2019-05-06T05:41:48.679Z,21.71
2019-05-06T05:42:48.668Z,21.66
2019-05-06T05:43:48.691Z,21.72
2019-05-06T05:44:48.642Z,21.72
2019-05-06T05:45:48.631Z,21.72
2019-05-06T05:46:48.624Z,21.72
2019-05-06T05:47:48.609Z,21.75
2019-05-06T05:48:48.613Z,21.71
2019-05-06T05:49:48.610Z,21.64
2019-05-06T05:50:48.576Z,21.66
2019-05-06T05:51:48.570Z,21.61
2019-05-06T05:52:48.561Z,21.59
2019-05-06T05:53:48.544Z,21.56
2019-05-06T05:54:48.555Z,21.56
2019-05-06T05:55:48.524Z,21.56
2019-05-06T05:56:48.509Z,21.56
2019-05-06T05:57:48.498Z,21.57
2019-05-06T05:58:48.486Z,21.59
2019-05-06T05:59:48.496Z,21.63
2019-05-06T06:00:48.465Z,21.60
2019-05-06T06:01:48.457Z,21.64
2019-05-06T06:02:48.442Z,21.59
2019-05-06T06:03:48.432Z,21.72
2019-05-06T06:04:54.703Z,21.64
2019-05-06T06:05:49.407Z,21.69
2019-05-06T06:06:48.397Z,21.66
2019-05-06T06:07:48.396Z,21.66
2019-05-06T06:08:48.745Z,21.63
2019-05-06T06:09:48.482Z,21.59
2019-05-06T06:10:48.786Z,21.64
2019-05-06T06:11:48.586Z,21.66
2019-05-06T06:12:48.545Z,21.54
2019-05-06T06:13:48.723Z,21.66
2019-05-06T06:14:49.466Z,21.56
2019-05-06T06:15:48.476Z,21.57
2019-05-06T06:16:48.632Z,21.48
2019-05-06T06:17:49.429Z,21.48
2019-05-06T06:18:48.264Z,21.42
2019-05-06T06:19:48.275Z,21.50
2019-05-06T06:20:48.389Z,21.50
2019-05-06T06:21:48.341Z,21.41
2019-05-06T06:22:48.688Z,21.45
2019-05-06T06:23:48.478Z,21.41
2019-05-06T06:24:48.280Z,21.46
2019-05-06T06:25:48.187Z,21.41
2019-05-06T06:26:48.177Z,21.41
2019-05-06T06:27:48.425Z,21.38
2019-05-06T06:28:48.157Z,21.41
2019-05-06T06:29:48.500Z,21.44
2019-05-06T06:30:48.135Z,21.36
2019-05-06T06:31:49.571Z,21.42
2019-05-06T06:32:48.353Z,21.38
2019-05-06T06:33:48.129Z,21.46
2019-05-06T06:34:48.420Z,21.41
2019-05-06T06:35:48.849Z,21.45
2019-05-06T06:36:48.554Z,21.42
2019-05-06T06:37:48.054Z,21.44
2019-05-06T06:38:48.043Z,21.39
2019-05-06T06:39:48.048Z,21.45
2019-05-06T06:40:48.044Z,21.44
2019-05-06T06:41:48.008Z,21.46
2019-05-06T06:42:48.003Z,21.44
2019-05-06T06:43:47.990Z,21.45
2019-05-06T06:44:47.975Z,21.42
2019-05-06T06:45:47.991Z,21.50
2019-05-06T06:46:47.966Z,21.45
2019-05-06T06:47:47.942Z,21.48
2019-05-06T06:48:47.932Z,21.45
2019-05-06T06:49:47.926Z,21.51
2019-05-06T06:50:47.931Z,21.54
2019-05-06T06:51:47.910Z,21.54
2019-05-06T06:52:47.887Z,21.60
2019-05-06T06:53:47.876Z,21.64
2019-05-06T06:54:47.867Z,21.64
2019-05-06T06:55:47.877Z,21.64
2019-05-06T06:56:47.848Z,21.63
2019-05-06T06:57:47.834Z,21.72
2019-05-06T06:58:47.820Z,21.66
2019-05-06T06:59:47.812Z,21.63
2019-05-06T07:00:47.823Z,21.67
2019-05-06T07:01:47.790Z,21.66
2019-05-06T07:02:47.776Z,21.78
2019-05-06T07:03:47.765Z,21.71
2019-05-06T07:04:47.760Z,21.76
2019-05-06T07:05:47.774Z,21.72
2019-05-06T07:06:47.755Z,21.79
2019-05-06T07:07:48.090Z,21.64
2019-05-06T07:08:47.710Z,21.74
2019-05-06T07:09:47.700Z,21.75
2019-05-06T07:10:47.709Z,21.79
2019-05-06T07:11:47.676Z,21.79
2019-05-06T07:12:47.693Z,21.90
2019-05-06T07:13:47.657Z,21.91
2019-05-06T07:14:47.649Z,21.98
2019-05-06T07:15:47.655Z,21.98
2019-05-06T07:16:47.622Z,21.90
2019-05-06T07:17:47.611Z,21.91
2019-05-06T07:18:47.600Z,21.99
2019-05-06T07:19:47.590Z,22.01
2019-05-06T07:20:47.612Z,21.98
2019-05-06T07:21:47.572Z,21.99
2019-05-06T07:22:47.557Z,21.91
2019-05-06T07:23:47.550Z,21.92
2019-05-06T07:24:47.533Z,22.01
2019-05-06T07:25:47.564Z,21.83
2019-05-06T07:26:47.527Z,21.81
2019-05-06T07:27:47.659Z,21.66
2019-05-06T07:28:47.489Z,21.39
2019-05-06T07:29:48.595Z,21.11
2019-05-06T07:30:47.469Z,20.96
2019-05-06T07:31:47.481Z,20.79
2019-05-06T07:32:47.445Z,20.51
2019-05-06T07:33:47.433Z,20.38
2019-05-06T07:34:47.426Z,20.28
2019-05-06T07:35:47.411Z,20.30
2019-05-06T07:36:47.420Z,20.28
2019-05-06T07:37:47.393Z,20.30
2019-05-06T07:38:47.381Z,20.46
2019-05-06T07:39:47.366Z,20.41
2019-05-06T07:40:47.356Z,20.31
2019-05-06T07:41:47.387Z,20.09
2019-05-06T07:42:47.346Z,20.13
2019-05-06T07:43:47.329Z,20.05
2019-05-06T07:44:47.316Z,19.95
2019-05-06T07:45:47.336Z,19.90
2019-05-06T07:46:47.314Z,19.79
2019-05-06T07:47:47.281Z,19.70
2019-05-06T07:48:47.270Z,19.65
2019-05-06T07:49:47.257Z,19.75
2019-05-06T07:50:49.242Z,19.87
2019-05-06T07:51:47.255Z,19.88
2019-05-06T07:52:47.250Z,19.76
2019-05-06T07:53:47.212Z,19.78
2019-05-06T07:54:47.203Z,19.75
2019-05-06T07:55:47.193Z,19.79
2019-05-06T07:56:47.201Z,19.80
2019-05-06T07:57:49.660Z,19.87
2019-05-06T07:58:47.156Z,19.91
2019-05-06T07:59:47.147Z,19.87
2019-05-06T08:00:47.150Z,19.84
2019-05-06T08:01:47.145Z,19.72
2019-05-06T08:02:47.115Z,19.57
2019-05-06T08:03:47.100Z,19.54
2019-05-06T08:04:47.089Z,19.47
2019-05-06T08:05:57.960Z,19.47
2019-05-06T08:06:48.104Z,19.51
2019-05-06T08:07:47.244Z,19.42
2019-05-06T08:08:47.050Z,19.42
2019-05-06T08:09:47.034Z,19.32
2019-05-06T08:10:47.031Z,19.21
2019-05-06T08:11:47.014Z,19.15
2019-05-06T08:12:47.027Z,18.99
2019-05-06T08:13:46.993Z,18.91
2019-05-06T08:14:46.981Z,18.90
2019-05-06T08:15:46.967Z,18.86
2019-05-06T08:16:46.958Z,19.05
2019-05-06T08:17:46.967Z,19.05
2019-05-06T08:18:46.944Z,19.01
2019-05-06T08:19:46.930Z,18.91
2019-05-06T08:20:46.914Z,18.72
2019-05-06T08:21:46.912Z,18.61
2019-05-06T08:22:46.911Z,18.47
2019-05-06T08:23:46.884Z,18.39
2019-05-06T08:24:46.875Z,18.25
2019-05-06T08:25:46.860Z,18.21
2019-05-06T08:26:46.849Z,18.02
2019-05-06T08:27:49.388Z,17.92
2019-05-06T08:28:46.832Z,17.78
2019-05-06T08:29:46.814Z,17.59
2019-05-06T08:30:46.811Z,17.51
2019-05-06T08:31:46.814Z,17.47
2019-05-06T08:32:46.784Z,17.30
2019-05-06T08:33:46.794Z,17.17
2019-05-06T08:34:46.763Z,17.17
2019-05-06T08:35:46.746Z,17.04
2019-05-06T08:36:46.738Z,17.06
2019-05-06T08:37:46.726Z,17.10
2019-05-06T08:38:46.736Z,16.93
2019-05-06T08:39:46.706Z,16.90
2019-05-06T08:40:46.691Z,16.93
2019-05-06T08:41:46.683Z,16.90
2019-05-06T08:42:46.673Z,17.08
2019-05-06T08:43:46.707Z,17.33
2019-05-06T08:44:46.647Z,17.66
2019-05-06T08:45:46.649Z,17.85
2019-05-06T08:46:46.697Z,18.15
2019-05-06T08:47:46.615Z,18.39
2019-05-06T08:48:46.607Z,18.67
2019-05-06T08:49:49.318Z,18.86
2019-05-06T08:50:46.587Z,19.11
2019-05-06T08:51:46.572Z,19.28
2019-05-06T08:52:46.565Z,19.50
2019-05-06T08:53:46.551Z,19.63
2019-05-06T08:54:46.561Z,19.84
2019-05-06T08:55:46.529Z,19.91
2019-05-06T08:56:46.515Z,20.12
2019-05-06T08:57:46.512Z,20.21
2019-05-06T08:58:46.499Z,20.27
2019-05-06T08:59:46.505Z,20.41
2019-05-06T09:00:46.473Z,20.43
2019-05-06T09:01:46.467Z,20.58
2019-05-06T09:02:46.455Z,20.56
2019-05-06T09:03:46.439Z,20.76
2019-05-06T09:04:46.449Z,20.72
2019-05-06T09:05:46.421Z,20.79
2019-05-06T09:06:46.405Z,20.93
2019-05-06T09:07:46.399Z,20.90
2019-05-06T09:08:46.386Z,20.98
2019-05-06T09:09:46.392Z,20.98
2019-05-06T09:10:46.363Z,21.08
2019-05-06T09:11:46.351Z,21.13
2019-05-06T09:12:46.422Z,21.16
2019-05-06T09:13:46.329Z,21.32
2019-05-06T09:14:46.336Z,21.24
2019-05-06T09:15:46.312Z,21.35
2019-05-06T09:16:46.311Z,21.39
2019-05-06T09:17:46.284Z,21.48
2019-05-06T09:18:46.276Z,21.59
2019-05-06T09:19:46.283Z,21.69
2019-05-06T09:20:46.259Z,21.81
2019-05-06T09:21:46.585Z,21.91
2019-05-06T09:22:46.226Z,22.01
2019-05-06T09:23:46.219Z,22.07
2019-05-06T09:24:46.235Z,21.97
2019-05-06T09:25:46.199Z,22.04
2019-05-06T09:26:46.182Z,21.99
2019-05-06T09:27:46.174Z,21.95
2019-05-06T09:28:46.162Z,21.95
2019-05-06T09:29:46.228Z,21.94
2019-05-06T09:30:46.153Z,21.91
2019-05-06T09:31:46.129Z,21.79
2019-05-06T09:32:46.161Z,21.59
2019-05-06T09:33:46.110Z,21.27
2019-05-06T09:34:46.121Z,21.14
2019-05-06T09:35:46.086Z,20.84
2019-05-06T09:36:52.014Z,20.49
2019-05-06T09:37:47.060Z,20.13
2019-05-06T09:38:46.062Z,19.73
2019-05-06T09:39:46.063Z,19.51
2019-05-06T09:40:46.029Z,19.42
2019-05-06T09:41:48.165Z,19.21
2019-05-06T09:42:46.005Z,19.15
2019-05-06T09:43:45.995Z,19.06
2019-05-06T09:44:46.004Z,19.15
2019-05-06T09:45:45.993Z,19.20
2019-05-06T09:46:46.017Z,19.21
2019-05-06T09:47:45.948Z,19.17
2019-05-06T09:48:45.939Z,19.06
2019-05-06T09:49:45.931Z,19.10
2019-05-06T09:50:46.693Z,19.11
2019-05-06T09:51:45.905Z,18.97
2019-05-06T09:52:45.895Z,19.05
2019-05-06T09:53:45.884Z,19.01
2019-05-06T09:54:45.879Z,18.90
2019-05-06T09:55:45.884Z,18.90
2019-05-06T09:56:45.849Z,18.90
2019-05-06T09:57:45.838Z,18.82
2019-05-06T09:58:45.827Z,18.80
2019-05-06T09:59:45.816Z,18.77
2019-05-06T10:00:45.830Z,18.72
2019-05-06T10:01:45.798Z,18.74
2019-05-06T10:02:49.312Z,18.68
2019-05-06T10:03:45.771Z,18.59
2019-05-06T10:04:45.761Z,18.58
2019-05-06T10:05:45.772Z,18.57
2019-05-06T10:06:56.276Z,18.58
2019-05-06T10:07:46.730Z,18.67
2019-05-06T10:08:45.721Z,18.61
2019-05-06T10:09:45.720Z,18.58
2019-05-06T10:10:55.917Z,18.67
2019-05-06T10:11:46.685Z,18.67
2019-05-06T10:12:45.686Z,18.61
2019-05-06T10:13:45.661Z,18.58
2019-05-06T10:14:45.652Z,18.54
2019-05-06T10:15:45.666Z,18.47
2019-05-06T10:16:45.637Z,18.49
2019-05-06T10:17:45.654Z,18.42
2019-05-06T10:18:45.612Z,18.27
2019-05-06T10:19:45.623Z,18.09
2019-05-06T10:20:45.609Z,17.89
2019-05-06T10:21:45.578Z,17.95
2019-05-06T10:22:45.584Z,17.87
2019-05-06T10:23:45.550Z,17.81
2019-05-06T10:24:45.544Z,17.92
2019-05-06T10:25:45.575Z,18.03
2019-05-06T10:26:45.521Z,18.06
2019-05-06T10:27:45.512Z,18.15
2019-05-06T10:28:45.502Z,18.39
2019-05-06T10:29:45.484Z,18.55
2019-05-06T10:30:45.513Z,18.77
2019-05-06T10:31:45.471Z,18.98
2019-05-06T10:32:45.453Z,19.11
2019-05-06T10:33:45.444Z,19.21
2019-05-06T10:34:45.437Z,19.24
2019-05-06T10:35:45.422Z,19.29
2019-05-06T10:36:45.432Z,19.40
2019-05-06T10:37:45.398Z,19.55
2019-05-06T10:38:45.387Z,19.60
2019-05-06T10:39:45.375Z,19.86
2019-05-06T10:40:59.522Z,19.93
2019-05-06T10:41:46.372Z,20.13
2019-05-06T10:42:45.342Z,20.16
2019-05-06T10:43:45.368Z,20.30
2019-05-06T10:44:45.320Z,20.38
2019-05-06T10:45:45.308Z,20.38
2019-05-06T10:46:45.321Z,20.23
2019-05-06T10:47:45.285Z,20.15
2019-05-06T10:48:45.280Z,20.16
2019-05-06T10:49:45.275Z,20.24
2019-05-06T10:50:45.252Z,20.28
2019-05-06T10:51:45.265Z,20.35
2019-05-06T10:52:45.233Z,20.30
2019-05-06T10:53:45.219Z,20.39
2019-05-06T10:54:45.211Z,20.30
2019-05-06T10:55:45.201Z,20.42
2019-05-06T10:56:53.150Z,20.35
2019-05-06T10:57:46.177Z,20.51
2019-05-06T10:58:45.165Z,20.47
2019-05-06T10:59:45.154Z,20.43
2019-05-06T11:00:45.293Z,20.39
2019-05-06T11:01:45.161Z,20.30
2019-05-06T11:02:45.120Z,20.23
2019-05-06T11:03:45.112Z,20.25
2019-05-06T11:04:45.104Z,20.27
2019-05-06T11:05:45.115Z,20.24
2019-05-06T11:06:45.084Z,20.08
2019-05-06T11:07:45.094Z,19.94
2019-05-06T11:08:45.053Z,19.87
2019-05-06T11:09:45.045Z,19.86
2019-05-06T11:10:45.720Z,19.91
2019-05-06T11:11:45.025Z,20.06
2019-05-06T11:12:45.031Z,20.08
2019-05-06T11:13:45.000Z,20.15
2019-05-06T11:14:44.989Z,20.12
2019-05-06T11:15:44.982Z,20.21
2019-05-06T11:16:45.509Z,20.25
2019-05-06T11:17:44.974Z,20.38
2019-05-06T11:18:44.946Z,20.41
2019-05-06T11:19:44.931Z,20.23
2019-05-06T11:20:44.920Z,20.18
2019-05-06T11:21:45.343Z,20.13
2019-05-06T11:22:44.921Z,20.23
2019-05-06T11:23:44.886Z,20.25
2019-05-06T11:24:44.875Z,20.31
2019-05-06T11:25:44.869Z,20.43
2019-05-06T11:26:44.854Z,20.49
2019-05-06T11:27:45.408Z,20.64
2019-05-06T11:28:44.831Z,20.64
2019-05-06T11:29:44.821Z,20.77
2019-05-06T11:30:44.808Z,20.81
2019-05-06T11:31:44.807Z,20.79
2019-05-06T11:32:44.817Z,20.90
2019-05-06T11:33:44.774Z,20.96
2019-05-06T11:34:44.768Z,21.11
2019-05-06T11:35:44.755Z,21.04
2019-05-06T11:36:44.742Z,21.08
2019-05-06T11:37:50.121Z,21.04
2019-05-06T11:38:48.353Z,21.17
2019-05-06T11:39:44.708Z,21.14
2019-05-06T11:40:44.696Z,21.13
2019-05-06T11:42:01.617Z,21.09
2019-05-06T11:42:45.714Z,21.17
2019-05-06T11:43:44.665Z,21.23
2019-05-06T11:44:44.658Z,21.24
2019-05-06T11:45:44.643Z,21.30
2019-05-06T11:46:44.636Z,21.34
2019-05-06T11:47:44.625Z,21.44
2019-05-06T11:48:44.631Z,21.45
2019-05-06T11:49:44.602Z,21.45
2019-05-06T11:50:44.588Z,21.21
2019-05-06T11:51:44.577Z,21.24
2019-05-06T11:52:44.564Z,21.06
2019-05-06T11:53:44.590Z,20.93
2019-05-06T11:54:44.544Z,20.90
2019-05-06T11:55:44.534Z,20.72
2019-05-06T11:56:50.664Z,20.74
2019-05-06T11:57:45.509Z,20.69
2019-05-06T11:58:44.521Z,20.54
2019-05-06T11:59:44.486Z,20.49
2019-05-06T12:00:44.609Z,20.49
2019-05-06T12:01:44.463Z,20.38
2019-05-06T12:02:48.383Z,20.49
2019-05-06T12:03:44.491Z,20.54
2019-05-06T12:04:44.434Z,20.56
2019-05-06T12:05:44.418Z,20.51
2019-05-06T12:06:44.413Z,20.54
2019-05-06T12:08:00.418Z,20.53
2019-05-06T12:08:45.426Z,20.74
2019-05-06T12:09:44.378Z,20.74
2019-05-06T12:10:44.366Z,20.84
2019-05-06T12:11:44.358Z,20.98
2019-05-06T12:12:44.341Z,21.08
2019-05-06T12:13:44.333Z,21.16
2019-05-06T12:14:44.344Z,21.04
2019-05-06T12:15:44.310Z,21.16
2019-05-06T12:16:44.301Z,21.16
2019-05-06T12:17:44.292Z,21.16
2019-05-06T12:18:44.274Z,21.24
2019-05-06T12:19:44.287Z,21.34
2019-05-06T12:20:44.255Z,21.39
2019-05-06T12:21:44.247Z,21.32
2019-05-06T12:22:44.230Z,21.35
2019-05-06T12:23:45.064Z,21.35
2019-05-06T12:24:44.235Z,21.38
2019-05-06T12:25:45.189Z,21.34
2019-05-06T12:26:44.190Z,21.26
2019-05-06T12:27:44.180Z,21.24
2019-05-06T12:28:44.163Z,21.19
2019-05-06T12:29:44.174Z,21.13
2019-05-06T12:30:44.145Z,21.01
2019-05-06T12:31:44.135Z,20.98
2019-05-06T12:32:44.124Z,20.90
2019-05-06T12:33:44.108Z,20.86
2019-05-06T12:34:44.134Z,20.68
2019-05-06T12:35:44.088Z,20.69
2019-05-06T12:36:44.077Z,20.61
2019-05-06T12:37:44.225Z,20.53
2019-05-06T12:38:44.055Z,20.58
2019-05-06T12:39:44.062Z,20.58
2019-05-06T12:40:44.035Z,20.58
2019-05-06T12:41:44.025Z,20.49
2019-05-06T12:42:44.009Z,20.43
2019-05-06T12:43:44.006Z,20.46
2019-05-06T12:44:44.010Z,20.41
2019-05-06T12:45:43.978Z,20.33
2019-05-06T12:46:43.969Z,20.39
2019-05-06T12:47:43.954Z,20.31
2019-05-06T12:48:44.177Z,20.31
2019-05-06T12:49:45.538Z,20.24
2019-05-06T12:50:43.921Z,20.27
2019-05-06T12:51:43.923Z,20.20
2019-05-06T12:52:44.385Z,20.27